createdAt,value
2018-12-20T00:01:13.632Z,8.80
2018-12-20T00:03:42.336Z,9.78
2018-12-20T00:06:11.224Z,10.17
2018-12-20T00:08:40.106Z,11.47
2018-12-20T00:11:09.130Z,10.60
2018-12-20T00:13:38.028Z,12.40
2018-12-20T00:16:06.895Z,10.82
2018-12-20T00:18:35.766Z,10.20
2018-12-20T00:21:05.509Z,10.78
2018-12-20T00:23:34.373Z,10.33
2018-12-20T00:26:03.145Z,11.30
2018-12-20T00:28:31.841Z,10.93
2018-12-20T00:31:01.874Z,9.80
2018-12-20T00:33:30.810Z,11.33
2018-12-20T00:35:59.579Z,10.40
2018-12-20T00:38:28.396Z,10.90
2018-12-20T00:40:57.123Z,10.98
2018-12-20T00:43:25.892Z,10.50
2018-12-20T00:45:54.724Z,9.80
2018-12-20T00:48:23.417Z,10.30
2018-12-20T00:50:52.251Z,11.50
2018-12-20T00:53:21.001Z,10.80
2018-12-20T00:55:49.717Z,10.20
2018-12-20T00:58:18.477Z,9.80
2018-12-20T01:00:48.409Z,9.97
2018-12-20T01:03:17.539Z,10.80
2018-12-20T01:05:46.498Z,10.27
2018-12-20T01:08:15.357Z,9.17
2018-12-20T01:10:45.491Z,9.37
2018-12-20T01:13:14.359Z,11.40
2018-12-20T01:15:43.361Z,10.03
2018-12-20T01:18:12.307Z,9.75
2018-12-20T01:20:41.643Z,10.00
2018-12-20T01:23:10.531Z,9.73
2018-12-20T01:25:39.448Z,9.13
2018-12-20T01:28:08.154Z,9.93
2018-12-20T01:30:36.940Z,11.73
2018-12-20T01:33:05.823Z,12.03
2018-12-20T01:35:34.623Z,11.97
2018-12-20T01:38:03.511Z,12.10
2018-12-20T01:40:32.413Z,13.93
2018-12-20T01:43:01.763Z,12.87
2018-12-20T01:45:30.608Z,12.30
2018-12-20T01:48:00.390Z,12.97
2018-12-20T01:50:29.444Z,11.63
2018-12-20T01:52:58.192Z,11.28
2018-12-20T01:55:27.010Z,10.53
2018-12-20T01:57:56.060Z,11.87
2018-12-20T02:00:25.026Z,13.07
2018-12-20T02:02:53.856Z,13.45
2018-12-20T02:05:22.740Z,12.40
2018-12-20T02:07:51.449Z,13.22
2018-12-20T02:10:20.282Z,13.27
2018-12-20T02:12:49.038Z,13.27
2018-12-20T02:15:18.346Z,12.83
2018-12-20T02:17:47.168Z,12.17
2018-12-20T02:20:16.289Z,12.70
2018-12-20T02:22:45.350Z,11.00
2018-12-20T02:25:14.177Z,13.70
2018-12-20T02:27:42.888Z,13.53
2018-12-20T02:30:11.859Z,13.93
2018-12-20T02:32:40.897Z,13.40
2018-12-20T02:35:09.752Z,11.27
2018-12-20T02:37:38.472Z,12.93
2018-12-20T02:40:07.520Z,13.73
2018-12-20T02:42:36.645Z,12.27
2018-12-20T02:45:10.719Z,14.18
2018-12-20T02:47:36.900Z,12.37
2018-12-20T02:50:06.366Z,13.40
2018-12-20T02:52:35.264Z,13.43
2018-12-20T02:55:04.295Z,12.60
2018-12-20T02:57:33.264Z,13.90
2018-12-20T03:00:02.424Z,13.90
2018-12-20T03:02:31.546Z,11.60
2018-12-20T03:05:00.422Z,13.77
2018-12-20T03:07:29.292Z,12.30
2018-12-20T03:09:57.987Z,12.33
2018-12-20T03:12:26.787Z,14.13
2018-12-20T03:14:55.738Z,14.00
2018-12-20T03:17:24.544Z,14.13
2018-12-20T03:19:53.378Z,12.50
2018-12-20T03:22:22.662Z,13.43
2018-12-20T03:24:51.560Z,13.00
2018-12-20T03:27:20.519Z,12.67
2018-12-20T03:29:49.478Z,14.07
2018-12-20T03:32:18.293Z,16.20
2018-12-20T03:34:47.079Z,15.13
2018-12-20T03:37:15.983Z,13.33
2018-12-20T03:39:45.123Z,12.70
2018-12-20T03:42:13.986Z,13.20
2018-12-20T03:44:42.963Z,13.80
2018-12-20T03:47:11.826Z,14.03
2018-12-20T03:49:40.833Z,13.30
2018-12-20T03:52:10.375Z,24.95
2018-12-20T03:54:39.281Z,22.33
2018-12-20T03:57:08.020Z,19.82
2018-12-20T03:59:36.956Z,43.37
2018-12-20T04:02:05.740Z,14.00
2018-12-20T04:04:34.525Z,11.97
2018-12-20T04:07:03.454Z,11.68
2018-12-20T04:09:32.327Z,10.87
2018-12-20T04:12:01.234Z,11.15
2018-12-20T04:14:30.052Z,9.00
2018-12-20T04:16:59.146Z,10.10
2018-12-20T04:19:29.263Z,9.90
2018-12-20T04:21:58.219Z,11.60
2018-12-20T04:24:27.128Z,10.37
2018-12-20T04:26:55.857Z,9.80
2018-12-20T04:29:24.700Z,11.03
2018-12-20T04:31:53.631Z,10.83
2018-12-20T04:34:22.618Z,9.95
2018-12-20T04:36:51.628Z,10.63
2018-12-20T04:39:20.430Z,10.63
2018-12-20T04:41:49.468Z,11.48
2018-12-20T04:44:18.326Z,9.30
2018-12-20T04:46:47.145Z,9.87
2018-12-20T04:49:16.086Z,8.90
2018-12-20T04:51:45.935Z,10.33
2018-12-20T04:54:15.100Z,9.07
2018-12-20T04:56:43.870Z,9.13
2018-12-20T04:59:12.656Z,11.43
2018-12-20T05:01:41.433Z,21.67
2018-12-20T05:04:10.506Z,11.75
2018-12-20T05:06:39.786Z,10.18
2018-12-20T05:09:08.752Z,9.33
2018-12-20T05:11:37.620Z,11.50
2018-12-20T05:14:06.461Z,8.87
2018-12-20T05:16:35.590Z,8.60
2018-12-20T05:19:04.729Z,9.33
2018-12-20T05:21:33.661Z,7.73
2018-12-20T05:24:02.537Z,10.27
2018-12-20T05:26:31.267Z,10.47
2018-12-20T05:29:00.327Z,9.80
2018-12-20T05:31:30.343Z,10.43
2018-12-20T05:33:59.136Z,9.03
2018-12-20T05:36:28.146Z,9.73
2018-12-20T05:38:56.933Z,9.93
2018-12-20T05:41:25.720Z,9.70
2018-12-20T05:43:54.518Z,9.88
2018-12-20T05:46:23.657Z,9.13
2018-12-20T05:48:52.646Z,8.87
2018-12-20T05:51:21.483Z,10.30
2018-12-20T05:53:50.253Z,8.97
2018-12-20T05:56:19.369Z,9.63
2018-12-20T05:58:48.579Z,9.50
2018-12-20T06:01:17.404Z,8.78
2018-12-20T06:03:46.366Z,9.43
2018-12-20T06:06:15.355Z,9.43
2018-12-20T06:08:44.085Z,9.53
2018-12-20T06:11:12.813Z,10.30
2018-12-20T06:13:41.610Z,14.03
2018-12-20T06:16:12.933Z,16.20
2018-12-20T06:18:41.328Z,14.40
2018-12-20T06:21:10.275Z,11.45
2018-12-20T06:23:39.085Z,12.17
2018-12-20T06:26:07.832Z,11.33
2018-12-20T06:28:36.540Z,9.57
2018-12-20T06:31:05.252Z,11.97
2018-12-20T06:33:33.969Z,10.77
2018-12-20T06:36:02.782Z,8.93
2018-12-20T06:38:31.568Z,8.97
2018-12-20T06:41:00.336Z,9.63
2018-12-20T06:43:29.120Z,10.67
2018-12-20T06:45:57.912Z,9.87
2018-12-20T06:48:27.688Z,8.73
2018-12-20T06:50:56.412Z,9.03
2018-12-20T06:53:25.135Z,9.63
2018-12-20T06:55:53.912Z,9.47
2018-12-20T06:58:23.300Z,9.63
2018-12-20T07:00:52.051Z,7.47
2018-12-20T07:03:20.774Z,9.07
2018-12-20T07:05:49.556Z,8.57
2018-12-20T07:08:18.332Z,7.13
2018-12-20T07:10:47.052Z,7.80
2018-12-20T07:13:15.761Z,8.20
2018-12-20T07:15:44.538Z,7.90
2018-12-20T07:18:13.357Z,8.70
2018-12-20T07:20:42.152Z,7.85
2018-12-20T07:23:10.972Z,7.63
2018-12-20T07:25:39.845Z,7.97
2018-12-20T07:28:08.996Z,8.43
2018-12-20T07:30:38.293Z,8.43
2018-12-20T07:33:06.996Z,9.70
2018-12-20T07:35:35.737Z,12.93
2018-12-20T07:38:04.579Z,11.57
2018-12-20T07:40:33.342Z,12.63
2018-12-20T07:43:02.072Z,10.27
2018-12-20T07:45:30.848Z,7.97
2018-12-20T07:47:59.620Z,6.67
2018-12-20T07:50:28.313Z,6.97
2018-12-20T07:52:57.041Z,8.17
2018-12-20T07:55:25.808Z,7.87
2018-12-20T07:57:54.798Z,7.80
2018-12-20T08:00:23.611Z,7.33
2018-12-20T08:02:52.453Z,8.60
2018-12-20T08:05:21.211Z,7.03
2018-12-20T08:07:50.053Z,6.10
2018-12-20T08:10:18.779Z,7.50
2018-12-20T08:12:47.540Z,6.67
2018-12-20T08:15:16.400Z,7.13
2018-12-20T08:17:45.100Z,6.28
2018-12-20T08:20:13.936Z,7.50
2018-12-20T08:22:42.701Z,6.47
2018-12-20T08:25:11.548Z,6.20
2018-12-20T08:27:40.309Z,7.57
2018-12-20T08:30:09.087Z,7.60
2018-12-20T08:32:37.992Z,7.37
2018-12-20T08:35:07.908Z,7.87
2018-12-20T08:37:36.707Z,6.50
2018-12-20T08:40:08.256Z,5.97
2018-12-20T08:42:36.994Z,6.17
2018-12-20T08:45:05.980Z,5.77
2018-12-20T08:47:34.996Z,6.07
2018-12-20T08:50:04.333Z,6.90
2018-12-20T08:52:33.161Z,8.07
2018-12-20T08:55:01.951Z,8.73
2018-12-20T08:57:30.744Z,7.37
2018-12-20T08:59:59.468Z,8.00
2018-12-20T09:02:28.169Z,8.43
2018-12-20T09:04:56.945Z,7.05
2018-12-20T09:07:25.693Z,6.47
2018-12-20T09:09:54.472Z,6.87
2018-12-20T09:12:23.176Z,5.90
2018-12-20T09:14:52.032Z,6.43
2018-12-20T09:17:21.187Z,7.70
2018-12-20T09:19:50.002Z,6.77
2018-12-20T09:22:18.796Z,9.53
2018-12-20T09:24:47.521Z,9.00
2018-12-20T09:27:16.292Z,8.40
2018-12-20T09:29:45.006Z,8.13
2018-12-20T09:32:13.772Z,8.07
2018-12-20T09:34:42.484Z,7.20
2018-12-20T09:37:11.259Z,7.20
2018-12-20T09:39:39.969Z,7.03
2018-12-20T09:42:08.736Z,7.30
2018-12-20T09:44:37.452Z,7.20
2018-12-20T09:47:12.254Z,6.45
2018-12-20T09:49:41.147Z,6.27
2018-12-20T09:52:09.877Z,6.50
2018-12-20T09:54:38.666Z,6.67
2018-12-20T09:57:07.453Z,8.23
2018-12-20T09:59:36.243Z,5.90
2018-12-20T10:02:05.072Z,5.87
2018-12-20T10:04:33.856Z,6.13
2018-12-20T10:07:02.646Z,6.55
2018-12-20T10:09:31.632Z,5.40
2018-12-20T10:12:01.541Z,5.67
2018-12-20T10:14:30.333Z,6.40
2018-12-20T10:16:59.074Z,6.42
2018-12-20T10:19:27.916Z,6.07
2018-12-20T10:21:56.685Z,6.70
2018-12-20T10:24:25.401Z,5.67
2018-12-20T10:26:54.296Z,6.00
2018-12-20T10:29:23.065Z,7.13
2018-12-20T10:31:51.766Z,6.00
2018-12-20T10:34:20.609Z,5.87
2018-12-20T10:36:49.384Z,6.70
2018-12-20T10:39:18.234Z,11.43
2018-12-20T10:41:47.008Z,7.33
2018-12-20T10:44:15.790Z,5.67
2018-12-20T10:46:44.565Z,5.93
2018-12-20T10:49:13.365Z,5.22
2018-12-20T10:51:42.212Z,5.95
2018-12-20T10:54:11.005Z,5.97
2018-12-20T10:56:39.785Z,4.57
2018-12-20T10:59:08.613Z,5.97
2018-12-20T11:01:42.733Z,5.47
2018-12-20T11:04:16.945Z,4.63
2018-12-20T11:06:51.101Z,4.43
2018-12-20T11:09:25.505Z,6.07
2018-12-20T11:11:59.884Z,4.33
2018-12-20T11:14:28.729Z,4.55
2018-12-20T11:16:57.493Z,4.43
2018-12-20T11:19:26.351Z,4.93
2018-12-20T11:21:55.114Z,4.80
2018-12-20T11:24:23.836Z,4.23
2018-12-20T11:26:52.626Z,5.05
2018-12-20T11:29:21.360Z,4.67
2018-12-20T11:31:50.082Z,4.80
2018-12-20T11:34:18.780Z,5.80
2018-12-20T11:36:47.572Z,4.70
2018-12-20T11:39:16.290Z,4.70
2018-12-20T11:41:45.057Z,3.83
2018-12-20T11:44:13.892Z,4.33
2018-12-20T11:46:43.640Z,4.47
2018-12-20T11:49:12.357Z,4.55
2018-12-20T11:51:41.064Z,3.90
2018-12-20T11:54:09.860Z,3.93
2018-12-20T11:56:38.704Z,3.63
2018-12-20T11:59:07.397Z,3.13
2018-12-20T12:01:36.380Z,3.93
2018-12-20T12:04:05.072Z,3.45
2018-12-20T12:06:33.870Z,3.50
2018-12-20T12:09:04.628Z,2.80
2018-12-20T12:11:33.488Z,3.05
2018-12-20T12:14:02.328Z,3.00
2018-12-20T12:16:31.182Z,2.47
2018-12-20T12:19:00.016Z,3.07
2018-12-20T12:21:28.768Z,2.87
2018-12-20T12:23:57.533Z,2.87
2018-12-20T12:26:26.301Z,2.83
2018-12-20T12:28:55.072Z,3.10
2018-12-20T12:31:23.860Z,2.95
2018-12-20T12:33:52.704Z,3.50
2018-12-20T12:36:21.428Z,3.43
2018-12-20T12:38:50.145Z,3.50
2018-12-20T12:41:18.930Z,3.60
2018-12-20T12:43:51.008Z,4.77
2018-12-20T12:46:18.517Z,3.73
2018-12-20T12:48:47.241Z,3.80
2018-12-20T12:51:16.029Z,3.65
2018-12-20T12:53:45.237Z,3.40
2018-12-20T12:56:14.021Z,3.73
2018-12-20T12:58:42.805Z,3.15
2018-12-20T13:01:11.521Z,4.10
2018-12-20T13:03:40.233Z,3.80
2018-12-20T13:06:09.110Z,4.87
2018-12-20T13:08:37.988Z,3.60
2018-12-20T13:11:06.784Z,3.37
2018-12-20T13:13:35.504Z,3.10
2018-12-20T13:16:04.396Z,3.70
2018-12-20T13:18:32.896Z,3.50
2018-12-20T13:21:01.596Z,3.20
2018-12-20T13:23:30.175Z,2.85
2018-12-20T13:25:58.977Z,3.57
2018-12-20T13:28:27.750Z,2.83
2018-12-20T13:30:56.528Z,2.90
2018-12-20T13:33:25.246Z,3.27
2018-12-20T13:35:54.456Z,3.67
2018-12-20T13:38:23.260Z,2.73
2018-12-20T13:40:52.048Z,3.30
2018-12-20T13:43:20.770Z,2.53
2018-12-20T13:45:49.588Z,3.10
2018-12-20T13:48:22.152Z,3.77
2018-12-20T13:50:49.360Z,2.80
2018-12-20T13:53:18.144Z,3.37
2018-12-20T13:55:46.868Z,3.00
2018-12-20T13:58:15.581Z,2.70
2018-12-20T14:00:44.368Z,2.50
2018-12-20T14:03:13.168Z,2.90
2018-12-20T14:05:41.890Z,2.40
2018-12-20T14:08:10.832Z,2.55
2018-12-20T14:10:39.553Z,2.20
2018-12-20T14:13:09.304Z,2.62
2018-12-20T14:15:38.168Z,2.37
2018-12-20T14:18:06.953Z,2.87
2018-12-20T14:20:35.794Z,2.40
2018-12-20T14:23:04.517Z,2.37
2018-12-20T14:25:33.240Z,2.20
2018-12-20T14:28:02.036Z,2.10
2018-12-20T14:30:30.749Z,2.87
2018-12-20T14:32:59.532Z,2.62
2018-12-20T14:35:28.287Z,4.37
2018-12-20T14:37:57.250Z,2.47
2018-12-20T14:40:26.046Z,2.40
2018-12-20T14:42:54.865Z,2.27
2018-12-20T14:45:23.576Z,3.00
2018-12-20T14:47:52.384Z,2.23
2018-12-20T14:50:21.197Z,2.70
2018-12-20T14:52:49.991Z,2.13
2018-12-20T14:55:18.773Z,2.23
2018-12-20T14:57:47.507Z,2.77
2018-12-20T15:00:16.340Z,2.22
2018-12-20T15:02:45.160Z,2.03
2018-12-20T15:05:14.036Z,1.80
2018-12-20T15:07:42.922Z,2.80
2018-12-20T15:10:11.641Z,2.93
2018-12-20T15:12:40.452Z,2.30
2018-12-20T15:15:09.769Z,2.27
2018-12-20T15:17:38.541Z,2.50
2018-12-20T15:20:08.520Z,2.40
2018-12-20T15:22:38.400Z,2.95
2018-12-20T15:25:07.276Z,3.03
2018-12-20T15:27:36.037Z,3.27
2018-12-20T15:30:05.629Z,3.10
2018-12-20T15:32:34.504Z,2.60
2018-12-20T15:35:03.276Z,2.75
2018-12-20T15:37:32.169Z,2.98
2018-12-20T15:40:01.001Z,3.13
2018-12-20T15:42:29.826Z,4.13
2018-12-20T15:44:58.665Z,3.92
2018-12-20T15:47:27.465Z,3.73
2018-12-20T15:49:56.229Z,3.72
2018-12-20T15:52:25.012Z,3.52
2018-12-20T15:54:53.719Z,3.20
2018-12-20T15:57:23.124Z,3.63
2018-12-20T15:59:51.944Z,3.87
2018-12-20T16:02:20.776Z,3.03
2018-12-20T16:04:49.614Z,3.47
2018-12-20T16:07:18.337Z,3.50
2018-12-20T16:09:47.196Z,3.20
2018-12-20T16:12:15.924Z,2.92
2018-12-20T16:14:44.644Z,2.87
2018-12-20T16:17:13.392Z,3.10
2018-12-20T16:19:42.175Z,2.60
2018-12-20T16:22:10.960Z,3.60
2018-12-20T16:24:39.812Z,3.73
2018-12-20T16:27:08.597Z,4.13
2018-12-20T16:29:37.380Z,3.17
2018-12-20T16:32:06.172Z,3.37
2018-12-20T16:34:35.040Z,3.52
2018-12-20T16:37:03.913Z,2.57
2018-12-20T16:39:33.256Z,2.60
2018-12-20T16:42:02.060Z,2.57
2018-12-20T16:44:30.797Z,2.80
2018-12-20T16:46:59.616Z,3.20
2018-12-20T16:49:28.409Z,3.40
2018-12-20T16:54:32.099Z,3.17
2018-12-20T16:57:00.890Z,3.00
2018-12-20T16:59:30.169Z,2.67
2018-12-20T17:01:58.996Z,3.13
2018-12-20T17:04:27.785Z,3.03
2018-12-20T17:06:56.696Z,2.57
2018-12-20T17:09:25.480Z,2.50
2018-12-20T17:11:54.264Z,2.55
2018-12-20T17:14:23.038Z,2.55
2018-12-20T17:16:51.824Z,3.30
2018-12-20T17:19:22.217Z,2.90
2018-12-20T17:21:51.393Z,2.50
2018-12-20T17:24:20.153Z,3.00
2018-12-20T17:26:48.953Z,3.63
2018-12-20T17:29:17.967Z,2.70
2018-12-20T17:31:46.925Z,2.50
2018-12-20T17:34:15.714Z,2.83
2018-12-20T17:36:44.470Z,2.57
2018-12-20T17:39:13.214Z,2.73
2018-12-20T17:41:42.033Z,3.10
2018-12-20T17:44:10.864Z,2.43
2018-12-20T17:46:39.577Z,3.20
2018-12-20T17:49:08.369Z,2.12
2018-12-20T17:55:16.393Z,2.87
2018-12-20T17:57:45.189Z,2.60
2018-12-20T18:00:14.044Z,2.73
2018-12-20T18:02:42.869Z,3.73
2018-12-20T18:05:11.756Z,2.50
2018-12-20T18:07:40.601Z,3.00
2018-12-20T18:10:11.165Z,2.35
2018-12-20T18:12:40.026Z,2.60
2018-12-20T18:15:11.018Z,2.33
2018-12-20T18:17:40.287Z,2.77
2018-12-20T18:20:10.399Z,2.60
2018-12-20T18:22:39.245Z,2.93
2018-12-20T18:25:08.491Z,3.37
2018-12-20T18:27:37.960Z,2.10
2018-12-20T18:30:10.272Z,3.08
2018-12-20T18:32:40.693Z,2.23
2018-12-20T18:35:10.231Z,3.50
2018-12-20T18:37:39.665Z,2.77
2018-12-20T18:40:09.793Z,2.30
2018-12-20T18:42:39.088Z,2.50
2018-12-20T18:45:09.037Z,2.30
2018-12-20T18:47:38.616Z,2.23
2018-12-20T18:50:09.554Z,1.62
2018-12-20T18:52:38.462Z,2.03
2018-12-20T18:55:07.545Z,2.10
2018-12-20T18:57:36.329Z,2.30
2018-12-20T19:00:07.370Z,2.10
2018-12-20T19:02:36.554Z,2.50
2018-12-20T19:05:06.784Z,5.63
2018-12-20T19:07:35.594Z,5.23
2018-12-20T19:10:05.209Z,10.43
2018-12-20T19:12:34.121Z,7.03
2018-12-20T19:15:03.024Z,6.90
2018-12-20T19:17:32.008Z,5.50
2018-12-20T19:20:00.845Z,4.00
2018-12-20T19:22:29.596Z,3.70
2018-12-20T19:24:58.317Z,3.27
2018-12-20T19:27:27.118Z,3.10
2018-12-20T19:29:55.841Z,3.80
2018-12-20T19:32:24.578Z,2.85
2018-12-20T19:34:53.301Z,2.50
2018-12-20T19:37:22.105Z,3.07
2018-12-20T19:39:55.085Z,2.62
2018-12-20T19:42:23.821Z,2.53
2018-12-20T19:44:52.715Z,3.10
2018-12-20T19:47:21.811Z,2.93
2018-12-20T19:49:52.830Z,2.33
2018-12-20T19:52:23.685Z,3.10
2018-12-20T19:54:55.017Z,2.77
2018-12-20T19:57:25.668Z,2.57
2018-12-20T19:59:56.817Z,2.40
2018-12-20T20:02:28.199Z,2.73
2018-12-20T20:04:59.697Z,2.87
2018-12-20T20:07:30.808Z,2.67
2018-12-20T20:10:01.871Z,2.13
2018-12-20T20:12:32.908Z,2.67
2018-12-20T20:15:03.950Z,2.00
2018-12-20T20:17:35.064Z,2.67
2018-12-20T20:20:13.490Z,2.23
2018-12-20T20:22:38.288Z,2.80
2018-12-20T20:25:08.506Z,2.50
2018-12-20T20:27:38.037Z,2.50
2018-12-20T20:30:10.664Z,2.23
2018-12-20T20:32:39.900Z,2.10
2018-12-20T20:35:08.813Z,2.03
2018-12-20T20:37:37.689Z,2.40
2018-12-20T20:40:09.232Z,2.67
2018-12-20T20:42:38.057Z,2.10
2018-12-20T20:45:07.228Z,2.43
2018-12-20T20:47:36.064Z,3.00
2018-12-20T20:50:06.497Z,3.60
2018-12-20T20:52:35.341Z,2.80
2018-12-20T20:55:05.850Z,3.00
2018-12-20T20:57:34.776Z,2.47
2018-12-20T21:00:06.813Z,2.80
2018-12-20T21:02:35.908Z,2.63
2018-12-20T21:05:05.115Z,3.00
2018-12-20T21:07:34.037Z,2.50
2018-12-20T21:10:02.824Z,2.17
2018-12-20T21:12:31.573Z,2.70
2018-12-20T21:15:00.437Z,2.15
2018-12-20T21:17:29.420Z,2.63
2018-12-20T21:19:58.216Z,2.40
2018-12-20T21:22:26.993Z,2.87
2018-12-20T21:24:55.764Z,2.00
2018-12-20T21:27:24.546Z,2.33
2018-12-20T21:29:53.272Z,2.60
2018-12-20T21:32:21.992Z,2.43
2018-12-20T21:34:50.791Z,2.63
2018-12-20T21:37:19.573Z,2.23
2018-12-20T21:39:48.432Z,2.50
2018-12-20T21:42:17.133Z,2.35
2018-12-20T21:44:45.857Z,2.47
2018-12-20T21:47:14.629Z,2.67
2018-12-20T21:49:43.480Z,2.33
2018-12-20T21:52:12.514Z,2.77
2018-12-20T21:54:41.231Z,2.70
2018-12-20T21:57:09.937Z,3.40
2018-12-20T21:59:38.788Z,2.37
2018-12-20T22:02:08.353Z,2.77
2018-12-20T22:04:37.060Z,2.60
2018-12-20T22:07:05.833Z,2.40
2018-12-20T22:09:34.546Z,2.63
2018-12-20T22:12:03.584Z,2.77
2018-12-20T22:14:32.304Z,2.23
2018-12-20T22:17:01.014Z,2.55
2018-12-20T22:19:29.720Z,2.07
2018-12-20T22:21:58.488Z,2.40
2018-12-20T22:24:27.202Z,2.45
2018-12-20T22:26:55.919Z,2.33
2018-12-20T22:29:24.752Z,2.83
2018-12-20T22:31:53.536Z,7.70
2018-12-20T22:34:22.257Z,7.47
2018-12-20T22:36:50.970Z,7.40
2018-12-20T22:39:19.814Z,20.27
2018-12-20T22:41:48.602Z,11.38
2018-12-20T22:44:17.373Z,8.53
2018-12-20T22:46:46.164Z,5.72
2018-12-20T22:49:14.912Z,3.50
2018-12-20T22:51:43.629Z,2.33
2018-12-20T22:54:12.328Z,3.63
2018-12-20T22:56:41.036Z,2.45
2018-12-20T22:59:09.805Z,2.60
2018-12-20T23:01:38.584Z,2.03
2018-12-20T23:04:07.449Z,2.20
2018-12-20T23:06:36.164Z,2.10
2018-12-20T23:09:05.589Z,2.20
2018-12-20T23:11:34.405Z,2.10
2018-12-20T23:14:03.238Z,1.70
2018-12-20T23:16:32.054Z,1.57
2018-12-20T23:19:00.758Z,2.23
2018-12-20T23:21:29.500Z,2.63
2018-12-20T23:23:58.309Z,3.73
2018-12-20T23:26:27.185Z,3.75
2018-12-20T23:28:55.992Z,2.83
2018-12-20T23:31:24.773Z,2.03
2018-12-20T23:33:53.536Z,1.80
2018-12-20T23:36:22.424Z,1.70
2018-12-20T23:38:51.201Z,1.65
2018-12-20T23:41:20.048Z,1.13
2018-12-20T23:43:48.756Z,1.43
2018-12-20T23:46:17.533Z,1.40
2018-12-20T23:48:46.364Z,1.63
2018-12-20T23:51:15.252Z,1.20
2018-12-20T23:58:26.192Z,1.37
